Arcadia, Indiana
Current Conditions -  °F | °C
As of 2:55 PM on Thursday 18 Dec 2014 (Local Time) from KTYQ Reporting Station
Overcast Overcast  
Wind Chill: 22°   Ceiling: 1700
Heat Index: 28°   Visibility: 10mi
Dew Point: 20°   Wind: 5mph
Humidity: 74%   Direction: 310°NW
Pressure: 30.22"   Gusts: NA
Location:  40.18°N, 86.02°W
Report Text: KTYQ 181955Z AUTO 31004KT 10SM OVC017 M02/M06 A3022 RMK AO2 T10241065
Loading
Personal Weather Stations






























Interactive Weather Map New forecast layout! Learn more

10-Day Weather Forecast

Advertisements
Track Severe Weather on mobile